Masset Airport
CZMT : now visible

Airfield :











YOU CAN JOIN US ON...

 
LOGIN :

Register | Disclaimer

   EN    FR    IT 

 









Legend :    VFR   Marginal VFR   IFR   Intensive IFR   Very Intensive IFR
Visi :
Ceiling :
>= 8 km
>= 3000ft
5 to 8 km
1000 to 3000 ft
1500m to 5 km
500 to 1000 ft
800 to 1500m
200 to 500 ft
< 800m
< 200 ft
Symbols :   Thunderstorms  Fog  Heavy snow  Heavy precipitations  Wind > 20 kt






- Airport Elevation : 25 ft
- IATA code : ZMT


CZMT - Masset

CURRENT METAR :
  • 252020Z 17012G18KT 15SM BKN008 OVC020 16/15 A3001 RMK ST6SC2 SLP165 DENSITY ALT 100FT

EXPIRED METARs :
  • 252000Z 16013G18KT 35SM -SHRA OVC008 16/15 A3001 RMK ST8 PCPN VRY LGT SLP165 DENSITY ALT 100FT
  • 251900Z 16012G22KT 10SM -SHRA OVC008 15/15 A3001 RMK ST8 PCPN VRY LGT SLP164
  • 251821Z 16012G22KT 10SM -SHRA OVC008 15/15 A3002 RMK ST8 SLP166
  • 251800Z 16012G20KT 10SM -SHRA SCT005 OVC020TCU 15/14 A3002 RMK ST4TCU4 SLP166

TAF TAF CZMT
Valid from the 25 at 19:00 until the 26 at 00:00 UTC


251840Z 2519/2524 16012G22KT P6SM -SHRA FEW008 SCT020 OVC030
TEMPO 2519/2524 5SM -SHRA BR SCT005 BKN008 OVC020
PROB30 2519/2524 BKN005 RMK NXT FCST BY 261400Z
CZVR FIR / North America



MET'MAP, your aeronautical weather chart ! - Copyright ORBIFLY December 2007 - Disclaimer

ORBIFLY MET'MAP TEAM :

Programming & Development : Alexandra Zaïnal
Original concept : Baudouin d'Aumeries
Technical & hardware support : Manuel Goepfert
Assistance : Marc-Olivier Méhu




SOURCES & CREDITS :

   NOAA       Earth
Advisory